Time;durP1;ratioP1;P1;durP2;ratioP2;P2;SDS_P1;SDS_P2;PMS_P1;PMS_P2;Temp;Humidity;BMP_temperature;BMP_pressure;BME280_temperature;BME280_humidity;BME280_pressure;Samples;Min_cycle;Max_cycle;Signal;HPM_P1;HPM_P2
2022/07/09 00:00:15;;;;;;;0.80;0.80;;;;;;;18.57;56.92;101983.56;690090;28;37719;-61
2022/07/09 00:00:36;;;;;;;0.70;0.70;;;;;;;18.57;56.83;101996.41;691324;28;23544;-61
2022/07/09 00:00:57;;;;;;;0.60;0.60;;;;;;;18.55;56.83;101988.41;690623;28;44319;-61
2022/07/09 00:01:19;;;;;;;0.80;0.80;;;;;;;18.56;56.83;101984.63;690178;28;22413;-61
2022/07/09 00:01:41;;;;;;;0.70;0.70;;;;;;;18.56;56.83;101990.13;690265;28;46346;-61
2022/07/09 00:02:02;;;;;;;0.70;0.70;;;;;;;18.56;56.84;101990.13;690663;28;23403;-61
2022/07/09 00:02:27;;;;;;;0.80;0.80;;;;;;;18.50;56.71;101985.44;690664;28;45170;-59
2022/07/09 00:02:49;;;;;;;0.70;0.70;;;;;;;18.55;56.65;101991.16;689190;28;93034;-60
2022/07/09 00:03:10;;;;;;;0.73;0.73;;;;;;;18.55;56.79;101994.72;690389;28;45308;-59
2022/07/09 00:03:31;;;;;;;0.77;0.77;;;;;;;18.54;56.94;101990.31;690694;28;22409;-59
2022/07/09 00:03:52;;;;;;;0.68;0.68;;;;;;;18.48;56.59;101988.38;690728;28;45666;-60
2022/07/09 00:04:13;;;;;;;0.50;0.50;;;;;;;18.52;56.97;101984.16;691203;28;21560;-60
2022/07/09 00:04:35;;;;;;;0.57;0.57;;;;;;;18.51;56.83;101987.97;691048;28;23805;-60
2022/07/09 00:04:57;;;;;;;0.70;0.70;;;;;;;18.52;56.81;101986.06;690626;28;44412;-59
2022/07/09 00:05:18;;;;;;;0.70;0.70;;;;;;;18.52;56.80;101988.81;690639;28;22417;-57
2022/07/09 00:05:39;;;;;;;0.70;0.70;;;;;;;18.53;56.78;101990.50;692412;28;23482;-61
2022/07/09 00:06:02;;;;;;;0.70;0.70;;;;;;;18.53;56.81;101988.59;691622;28;22002;-61
2022/07/09 00:06:24;;;;;;;0.70;0.70;;;;;;;18.53;56.75;101988.59;688314;28;92406;-59
2022/07/09 00:06:46;;;;;;;0.83;0.83;;;;;;;18.53;56.68;101988.59;690051;28;67500;-60
2022/07/09 00:07:07;;;;;;;0.95;0.95;;;;;;;18.51;56.69;101990.72;689668;28;44358;-61
2022/07/09 00:07:28;;;;;;;1.00;1.00;;;;;;;18.52;56.71;101986.91;690639;28;23496;-60
2022/07/09 00:07:50;;;;;;;1.00;1.00;;;;;;;18.52;56.60;101983.34;691325;28;22420;-61
2022/07/09 00:08:12;;;;;;;0.65;0.65;;;;;;;18.47;56.73;101986.66;690175;28;46407;-62
2022/07/09 00:08:34;;;;;;;0.70;0.70;;;;;;;18.51;56.69;101987.09;691783;28;45374;-60
2022/07/09 00:08:55;;;;;;;0.90;0.90;;;;;;;18.50;56.73;101980.81;691492;28;22449;-57
2022/07/09 00:09:16;;;;;;;0.70;0.70;;;;;;;18.51;56.67;101985.25;690431;28;44395;-59
2022/07/09 00:09:38;;;;;;;0.80;0.80;;;;;;;18.51;56.64;101993.44;690856;28;23521;-61
2022/07/09 00:09:59;;;;;;;0.90;0.90;;;;;;;18.51;56.67;101987.09;690460;28;46753;-61
2022/07/09 00:10:20;;;;;;;0.70;0.70;;;;;;;18.48;56.62;101984.78;690398;28;23454;-57
2022/07/09 00:10:41;;;;;;;0.77;0.77;;;;;;;18.49;56.52;101989.22;691038;28;22433;-60
2022/07/09 00:11:03;;;;;;;0.80;0.80;;;;;;;18.50;56.47;101989.00;692090;28;22415;-61
2022/07/09 00:11:25;;;;;;;0.70;0.70;;;;;;;18.51;56.55;101990.72;690063;28;20006;-60
2022/07/09 00:11:46;;;;;;;0.80;0.80;;;;;;;18.50;56.57;101986.28;689444;28;67557;-61
2022/07/09 00:12:08;;;;;;;1.00;1.00;;;;;;;18.52;56.42;101986.91;690194;28;47210;-62
2022/07/09 00:12:30;;;;;;;0.80;0.80;;;;;;;18.54;56.29;101986.72;690285;28;45295;-61
2022/07/09 00:12:52;;;;;;;0.75;0.75;;;;;;;18.47;56.23;101974.91;691380;28;20887;-61
2022/07/09 00:13:13;;;;;;;0.90;0.90;;;;;;;18.53;56.05;101983.13;690280;28;46409;-61
2022/07/09 00:13:34;;;;;;;0.85;0.85;;;;;;;18.53;56.05;101985.03;692811;28;23516;-60
2022/07/09 00:13:55;;;;;;;0.90;0.90;;;;;;;18.52;55.90;101988.81;691111;28;43911;-59
2022/07/09 00:14:17;;;;;;;0.88;0.88;;;;;;;18.51;55.85;101984.38;691252;28;24105;-61
2022/07/09 00:14:39;;;;;;;0.70;0.70;;;;;;;18.52;56.06;101986.06;690452;28;46419;-62
2022/07/09 00:15:00;;;;;;;0.88;0.88;;;;;;;18.53;55.91;101988.59;691544;28;23425;-60
2022/07/09 00:15:21;;;;;;;0.70;0.70;;;;;;;18.55;55.83;101988.41;690639;28;20966;-59
2022/07/09 00:15:43;;;;;;;0.68;0.68;;;;;;;18.52;55.86;101978.69;691257;28;21240;-60
2022/07/09 00:16:05;;;;;;;0.98;0.98;;;;;;;18.57;55.84;101980.00;690281;28;69619;-61
2022/07/09 00:16:26;;;;;;;1.00;1.00;;;;;;;18.57;55.85;101980.84;690645;28;23741;-61
2022/07/09 00:16:47;;;;;;;0.90;0.90;;;;;;;18.56;55.95;101992.84;691433;28;22388;-61
2022/07/09 00:17:09;;;;;;;1.00;1.00;;;;;;;18.57;55.65;101991.78;689568;28;44390;-61
2022/07/09 00:17:40;;;;;;;0.63;0.63;;;;;;;18.55;55.55;101988.41;688609;28;97320;-61
2022/07/09 00:18:02;;;;;;;0.80;0.80;;;;;;;18.55;55.73;101986.50;690516;28;46484;-61
2022/07/09 00:18:24;;;;;;;0.60;0.60;;;;;;;18.49;55.67;101975.53;690665;28;22444;-61
2022/07/09 00:18:45;;;;;;;0.70;0.70;;;;;;;18.56;55.58;101984.63;690197;28;45246;-61
2022/07/09 00:19:06;;;;;;;0.80;0.80;;;;;;;18.55;55.55;101983.78;691066;28;22509;-61
2022/07/09 00:19:27;;;;;;;0.60;0.60;;;;;;;18.56;55.89;101987.38;691201;28;21542;-61
2022/07/09 00:19:49;;;;;;;0.70;0.70;;;;;;;18.55;55.52;101991.16;691254;28;22387;-61
2022/07/09 00:20:12;;;;;;;0.70;0.70;;;;;;;18.57;55.40;101985.47;690446;28;46329;-59
2022/07/09 00:20:33;;;;;;;0.60;0.60;;;;;;;18.57;55.51;101978.09;689437;28;69740;-58
2022/07/09 00:20:54;;;;;;;0.65;0.65;;;;;;;18.58;55.31;101992.66;691583;28;23571;-61
2022/07/09 00:21:15;;;;;;;0.70;0.70;;;;;;;18.60;55.39;101990.53;691089;28;22258;-60
2022/07/09 00:21:37;;;;;;;0.50;0.50;;;;;;;18.59;55.09;101988.84;690335;28;21533;-62
2022/07/09 00:21:59;;;;;;;0.60;0.60;;;;;;;18.57;55.00;101986.31;690587;28;23486;-61
2022/07/09 00:22:20;;;;;;;1.10;1.10;;;;;;;18.58;55.39;101988.00;688151;28;69467;-61
2022/07/09 00:22:42;;;;;;;0.60;0.60;;;;;;;18.61;55.21;101989.50;690721;28;22593;-62
2022/07/09 00:23:03;;;;;;;0.70;0.70;;;;;;;18.61;55.03;101987.63;691323;28;21540;-62
2022/07/09 00:23:26;;;;;;;0.60;0.60;;;;;;;18.60;55.01;101985.91;690561;28;22423;-62
2022/07/09 00:23:48;;;;;;;0.68;0.68;;;;;;;18.60;55.14;101988.66;688712;28;92313;-61
2022/07/09 00:24:09;;;;;;;0.85;0.85;;;;;;;18.61;54.96;101995.81;692884;28;23481;-61
2022/07/09 00:24:30;;;;;;;0.90;0.90;;;;;;;18.61;54.95;101986.78;693860;28;23488;-61
2022/07/09 00:24:51;;;;;;;0.80;0.80;;;;;;;18.61;54.98;101986.78;693998;28;22400;-61
2022/07/09 00:25:13;;;;;;;0.80;0.80;;;;;;;18.62;54.87;101989.31;692627;28;47403;-60
2022/07/09 00:25:34;;;;;;;0.80;0.80;;;;;;;18.61;54.83;101982.13;693597;28;46486;-61
2022/07/09 00:25:56;;;;;;;0.75;0.75;;;;;;;18.61;54.78;101986.78;693056;28;22406;-62
2022/07/09 00:26:18;;;;;;;0.80;0.80;;;;;;;18.62;54.93;101992.06;691387;28;14639;-61
2022/07/09 00:26:39;;;;;;;0.63;0.63;;;;;;;18.61;54.79;101984.03;690346;28;89090;-61
2022/07/09 00:27:02;;;;;;;1.00;1.00;;;;;;;18.62;54.70;101986.56;692544;28;46482;-62
2022/07/09 00:27:23;;;;;;;1.20;1.20;;;;;;;18.61;54.67;101986.78;692801;28;47112;-61
2022/07/09 00:27:44;;;;;;;0.80;0.80;;;;;;;18.59;54.60;101986.97;694133;28;21550;-61
2022/07/09 00:28:05;;;;;;;0.90;0.90;;;;;;;18.55;54.60;101989.25;693309;28;22556;-61
2022/07/09 00:28:27;;;;;;;0.70;0.70;;;;;;;18.61;54.71;101989.50;693779;28;23443;-59
2022/07/09 00:28:49;;;;;;;0.70;0.70;;;;;;;18.59;54.41;101988.84;692429;28;69340;-61
2022/07/09 00:29:10;;;;;;;0.80;0.80;;;;;;;18.59;54.74;101989.72;693910;28;21546;-61
2022/07/09 00:29:31;;;;;;;0.80;0.80;;;;;;;18.60;54.48;101994.13;693837;28;22416;-61
2022/07/09 00:29:53;;;;;;;0.80;0.80;;;;;;;18.61;54.60;101990.34;694070;28;23513;-62
2022/07/09 00:30:14;;;;;;;0.70;0.70;;;;;;;18.61;54.47;101993.09;692787;28;46199;-61
2022/07/09 00:30:35;;;;;;;0.70;0.70;;;;;;;18.61;54.56;101984.88;692824;28;22401;-61
2022/07/09 00:30:57;;;;;;;0.70;0.70;;;;;;;18.61;54.62;101990.34;694209;28;22495;-60
2022/07/09 00:31:19;;;;;;;0.80;0.80;;;;;;;18.61;54.60;101990.34;692252;28;46359;-62
2022/07/09 00:31:40;;;;;;;0.77;0.77;;;;;;;18.62;54.48;101988.44;689547;28;69410;-62
2022/07/09 00:32:01;;;;;;;0.90;0.90;;;;;;;18.61;54.30;101990.34;691222;28;21547;-62
2022/07/09 00:32:22;;;;;;;0.90;0.90;;;;;;;18.57;54.39;101996.41;691393;28;22414;-62
2022/07/09 00:32:44;;;;;;;0.70;0.70;;;;;;;18.55;54.35;101988.41;691965;28;23481;-62
2022/07/09 00:33:06;;;;;;;0.90;0.90;;;;;;;18.53;54.22;101996.81;692246;28;22406;-62
2022/07/09 00:33:28;;;;;;;0.82;0.82;;;;;;;18.51;54.38;101985.25;694136;28;960;-62
2022/07/09 00:33:49;;;;;;;0.60;0.60;;;;;;;18.53;54.49;101990.50;691182;28;46306;-62
2022/07/09 00:34:10;;;;;;;0.90;0.90;;;;;;;18.52;54.40;101994.28;691927;28;22286;-62
2022/07/09 00:34:33;;;;;;;0.80;0.80;;;;;;;18.54;54.51;101986.72;690817;28;23520;-61
2022/07/09 00:34:54;;;;;;;0.70;0.70;;;;;;;18.53;54.56;101993.25;689964;28;69474;-62
2022/07/09 00:35:15;;;;;;;0.80;0.80;;;;;;;18.51;54.63;101996.19;690890;28;23494;-62
2022/07/09 00:35:36;;;;;;;0.80;0.80;;;;;;;18.51;54.58;101990.72;691016;28;21676;-61
2022/07/09 00:35:58;;;;;;;0.70;0.70;;;;;;;18.52;54.57;101989.66;691219;28;23578;-61
2022/07/09 00:36:20;;;;;;;0.80;0.80;;;;;;;18.52;54.31;101991.53;690527;28;22403;-62
2022/07/09 00:36:41;;;;;;;0.70;0.70;;;;;;;18.50;54.31;101977.22;692936;28;46336;-62
2022/07/09 00:37:03;;;;;;;1.00;1.00;;;;;;;18.50;54.42;101993.66;693106;28;23513;-62
2022/07/09 00:37:25;;;;;;;0.90;0.90;;;;;;;18.52;54.63;101986.06;694211;28;1493;-62
2022/07/09 00:37:47;;;;;;;0.77;0.77;;;;;;;18.54;54.48;101992.19;693191;28;44421;-61
2022/07/09 00:38:09;;;;;;;0.73;0.73;;;;;;;18.53;54.26;101985.03;692817;28;44403;-62
2022/07/09 00:38:31;;;;;;;0.80;0.80;;;;;;;18.51;54.54;101984.38;694032;28;22180;-61
2022/07/09 00:38:52;;;;;;;0.70;0.70;;;;;;;18.53;54.39;101988.59;693345;28;45239;-62
2022/07/09 00:39:14;;;;;;;0.68;0.68;;;;;;;18.53;54.32;101991.34;693298;28;23502;-62
2022/07/09 00:39:35;;;;;;;0.77;0.77;;;;;;;18.53;54.37;101990.50;692861;28;46615;-62
2022/07/09 00:39:57;;;;;;;0.80;0.80;;;;;;;18.54;54.33;101986.72;693390;28;48002;-62
2022/07/09 00:40:18;;;;;;;0.65;0.65;;;;;;;18.56;54.50;101992.84;693987;28;23498;-60
2022/07/09 00:40:39;;;;;;;0.80;0.80;;;;;;;18.57;54.50;101990.94;693984;28;21565;-62
2022/07/09 00:41:02;;;;;;;0.80;0.80;;;;;;;18.56;54.26;101990.13;693751;28;21592;-62
2022/07/09 00:41:23;;;;;;;0.77;0.77;;;;;;;18.55;54.35;101988.41;691220;28;44417;-62
2022/07/09 00:41:44;;;;;;;0.93;0.93;;;;;;;18.57;54.33;101986.31;690088;28;46355;-61
2022/07/09 00:42:06;;;;;;;0.70;0.70;;;;;;;18.58;54.29;101990.75;691844;28;23727;-62
2022/07/09 00:42:28;;;;;;;0.73;0.73;;;;;;;18.60;54.15;101991.38;690079;28;47213;-62
2022/07/09 00:42:49;;;;;;;0.80;0.80;;;;;;;18.58;54.08;101988.00;690494;28;46259;-62
2022/07/09 00:43:17;;;;;;;0.80;0.80;;;;;;;18.59;54.34;101986.13;690636;28;22424;-62
2022/07/09 00:43:45;;;;;;;0.70;0.70;;;;;;;18.57;54.12;101978.09;686612;28;136347;-62
2022/07/09 00:44:08;;;;;;;0.90;0.90;;;;;;;18.58;54.35;101985.28;686811;28;138045;-61
2022/07/09 00:44:29;;;;;;;0.70;0.70;;;;;;;18.58;53.98;101989.91;690276;28;46339;-62
2022/07/09 00:44:50;;;;;;;0.80;0.80;;;;;;;18.57;53.93;101994.53;691286;28;22382;-62
2022/07/09 00:45:11;;;;;;;0.70;0.70;;;;;;;18.58;54.00;101989.91;690778;28;23443;-61
2022/07/09 00:45:33;;;;;;;0.80;0.80;;;;;;;18.58;53.97;101993.47;689932;28;44577;-62
2022/07/09 00:45:56;;;;;;;0.80;0.80;;;;;;;18.58;53.97;101995.38;691567;28;22247;-62
2022/07/09 00:46:17;;;;;;;0.80;0.80;;;;;;;18.58;54.04;101993.47;687561;28;89538;-61
2022/07/09 00:46:39;;;;;;;0.70;0.70;;;;;;;18.57;53.92;101988.22;691624;28;1438;-60
2022/07/09 00:47:00;;;;;;;1.02;1.02;;;;;;;18.51;53.92;101987.09;690133;28;22382;-62
2022/07/09 00:47:21;;;;;;;0.95;0.95;;;;;;;18.49;54.08;101983.72;690690;28;23416;-60
2022/07/09 00:47:43;;;;;;;0.75;0.75;;;;;;;18.53;54.01;101991.34;690577;28;47781;-60
2022/07/09 00:48:05;;;;;;;0.90;0.90;;;;;;;18.51;53.92;101998.06;690197;28;45296;-62
2022/07/09 00:48:26;;;;;;;0.80;0.80;;;;;;;18.51;53.96;101992.56;692636;28;22392;-61
2022/07/09 00:48:47;;;;;;;0.80;0.80;;;;;;;18.52;53.98;101995.13;691469;28;22414;-61
2022/07/09 00:49:09;;;;;;;1.02;1.02;;;;;;;18.53;53.93;101995.97;689839;28;46364;-61
2022/07/09 00:49:31;;;;;;;0.88;0.88;;;;;;;18.52;53.92;101994.28;690992;28;23481;-61
2022/07/09 00:49:52;;;;;;;0.80;0.80;;;;;;;18.51;53.98;101990.72;690475;28;46049;-61
2022/07/09 00:50:14;;;;;;;0.90;0.90;;;;;;;18.52;53.94;101995.13;691005;28;23566;-61
2022/07/09 00:50:35;;;;;;;0.80;0.80;;;;;;;18.52;53.97;102000.59;690411;28;46344;-61
2022/07/09 00:50:58;;;;;;;1.00;1.00;;;;;;;18.54;53.99;101998.53;691938;28;22492;-61
2022/07/09 00:51:19;;;;;;;0.93;0.93;;;;;;;18.55;53.97;101991.16;688401;28;70310;-61
2022/07/09 00:51:41;;;;;;;0.95;0.95;;;;;;;18.55;54.16;102000.19;691183;28;21541;-62
2022/07/09 00:52:02;;;;;;;0.93;0.93;;;;;;;18.55;53.90;101994.72;690251;28;46339;-62
2022/07/09 00:52:24;;;;;;;0.80;0.80;;;;;;;18.57;53.83;101997.25;690964;28;21416;-62
2022/07/09 00:52:47;;;;;;;0.88;0.88;;;;;;;18.58;53.97;102000.84;690022;28;46419;-62
2022/07/09 00:53:09;;;;;;;1.10;1.10;;;;;;;18.56;53.75;101995.59;689367;28;69407;-62
2022/07/09 00:53:32;;;;;;;0.90;0.90;;;;;;;18.57;53.98;101993.69;690455;28;46527;-62
2022/07/09 00:53:58;;;;;;;0.80;0.80;;;;;;;18.55;53.68;101996.63;690527;28;69464;-62
2022/07/09 00:54:19;;;;;;;0.90;0.90;;;;;;;18.54;53.80;101997.66;687554;28;113599;-61
2022/07/09 00:54:41;;;;;;;0.70;0.70;;;;;;;18.52;53.88;101997.00;690465;28;45246;-61
2022/07/09 00:55:03;;;;;;;0.85;0.85;;;;;;;18.52;53.85;101997.00;690075;28;45396;-62
2022/07/09 00:55:26;;;;;;;0.80;0.80;;;;;;;18.49;53.84;101989.22;689944;28;45251;-61
2022/07/09 00:55:47;;;;;;;0.70;0.70;;;;;;;18.53;53.83;101996.81;689489;28;69480;-60
2022/07/09 00:56:09;;;;;;;0.70;0.70;;;;;;;18.54;53.94;102001.25;690950;28;23486;-62
2022/07/09 00:56:30;;;;;;;0.60;0.60;;;;;;;18.54;53.98;101994.91;692163;28;21561;-62
2022/07/09 00:56:53;;;;;;;0.70;0.70;;;;;;;18.54;54.03;101990.31;694296;28;23542;-62
2022/07/09 00:57:16;;;;;;;1.00;1.00;;;;;;;18.49;53.93;101987.31;691499;28;90226;-62
2022/07/09 00:57:37;;;;;;;0.70;0.70;;;;;;;18.52;53.87;101991.53;693093;28;46323;-61
2022/07/09 00:57:58;;;;;;;0.95;0.95;;;;;;;18.53;53.75;101990.50;693809;28;22402;-60
2022/07/09 00:58:22;;;;;;;1.00;1.00;;;;;;;18.53;53.97;101991.34;692998;28;44536;-62
2022/07/09 00:58:44;;;;;;;0.70;0.70;;;;;;;18.55;53.95;101983.78;692209;28;68382;-61
2022/07/09 00:59:10;;;;;;;0.82;0.82;;;;;;;18.56;53.74;101990.13;693489;28;67499;-62
2022/07/09 00:59:32;;;;;;;1.08;1.08;;;;;;;18.56;53.75;101990.13;690188;28;113559;-61
2022/07/09 00:59:54;;;;;;;1.10;1.10;;;;;;;18.56;53.72;101990.13;693513;28;45255;-61
2022/07/09 01:00:15;;;;;;;0.70;0.70;;;;;;;18.57;53.83;101989.03;692799;28;46543;-62
2022/07/09 01:00:37;;;;;;;0.80;0.80;;;;;;;18.55;53.75;101989.25;694101;28;23506;-61
2022/07/09 01:00:58;;;;;;;1.00;1.00;;;;;;;18.52;53.91;101989.66;693241;28;46421;-61
2022/07/09 01:01:20;;;;;;;0.70;0.70;;;;;;;18.51;53.75;101993.44;692425;28;23498;-61
2022/07/09 01:01:41;;;;;;;1.05;1.05;;;;;;;18.53;53.69;101993.25;692774;28;44393;-62
2022/07/09 01:02:03;;;;;;;0.98;0.98;;;;;;;18.52;53.70;101989.66;694830;28;21543;-62
2022/07/09 01:02:24;;;;;;;0.70;0.70;;;;;;;18.53;53.66;101991.34;692838;28;44402;-62
2022/07/09 01:02:47;;;;;;;0.95;0.95;;;;;;;18.54;53.74;101993.03;694313;28;23490;-62
2022/07/09 01:03:09;;;;;;;1.00;1.00;;;;;;;18.53;53.66;101990.50;692689;28;67236;-62
2022/07/09 01:03:31;;;;;;;0.80;0.80;;;;;;;18.52;53.77;101991.53;693819;28;22399;-62
2022/07/09 01:03:52;;;;;;;1.27;1.27;;;;;;;18.49;53.63;101983.72;692484;28;69387;-62
2022/07/09 01:04:13;;;;;;;1.25;1.25;;;;;;;18.53;53.92;101987.78;693806;28;21370;-62
2022/07/09 01:04:35;;;;;;;1.25;1.25;;;;;;;18.53;53.71;101985.88;695271;28;23783;-62
2022/07/09 01:04:57;;;;;;;350.48;330.92;;;;;;;18.48;53.70;101982.03;693950;28;23458;-62
2022/07/09 01:05:18;;;;;;;528.25;498.95;;;;;;;18.51;53.67;101987.09;691840;28;69410;-62
2022/07/09 01:05:40;;;;;;;102.75;97.75;;;;;;;18.51;53.53;101984.38;693799;28;23269;-62
2022/07/09 01:06:01;;;;;;;109.97;104.65;;;;;;;18.51;53.44;101984.38;693633;28;22611;-62
2022/07/09 01:06:22;;;;;;;114.95;109.35;;;;;;;18.52;53.62;101980.59;692950;28;22304;-61
2022/07/09 01:06:44;;;;;;;130.95;124.55;;;;;;;18.51;53.71;101985.25;692905;28;44387;-62
2022/07/09 01:07:06;;;;;;;116.32;110.72;;;;;;;18.53;53.67;101985.03;694051;28;45264;-61
2022/07/09 01:07:27;;;;;;;297.77;281.98;;;;;;;18.52;53.54;101986.06;693752;28;22395;-61
2022/07/09 01:07:48;;;;;;;410.60;388.98;;;;;;;18.50;53.67;101980.81;693313;28;21539;-59
2022/07/09 01:08:09;;;;;;;209.52;199.10;;;;;;;18.51;53.78;101982.50;693646;28;22498;-62
2022/07/09 01:08:33;;;;;;;142.82;135.77;;;;;;;18.52;53.57;101983.34;693367;28;45261;-60
2022/07/09 01:08:54;;;;;;;99.43;94.68;;;;;;;18.48;53.72;101977.44;692454;28;67504;-60
2022/07/09 01:09:15;;;;;;;94.25;89.75;;;;;;;18.53;53.75;101982.31;694120;28;21314;-61
2022/07/09 01:09:38;;;;;;;89.03;84.75;;;;;;;18.51;53.42;101985.25;693856;28;22488;-60
2022/07/09 01:09:59;;;;;;;70.22;66.88;;;;;;;18.46;53.69;101974.03;693572;28;67195;-61
2022/07/09 01:10:21;;;;;;;53.83;51.33;;;;;;;18.52;53.54;101986.91;694064;28;23411;-61
2022/07/09 01:10:43;;;;;;;44.08;42.10;;;;;;;18.51;53.58;101981.63;693909;28;46145;-62
2022/07/09 01:11:05;;;;;;;50.88;48.55;;;;;;;18.51;53.68;101977.03;692751;28;69656;-61
2022/07/09 01:11:26;;;;;;;37.15;35.50;;;;;;;18.52;53.50;101977.88;692902;28;22408;-61
2022/07/09 01:11:48;;;;;;;48.47;46.22;;;;;;;18.52;53.51;101986.06;694391;28;22397;-61
2022/07/09 01:12:09;;;;;;;40.60;38.78;;;;;;;18.52;53.50;101986.06;693140;28;46278;-61
2022/07/09 01:12:31;;;;;;;14.25;13.73;;;;;;;18.51;53.69;101978.91;695672;28;21393;-62
2022/07/09 01:12:52;;;;;;;9.90;9.60;;;;;;;18.50;53.68;101989.00;693533;28;46424;-62
2022/07/09 01:13:13;;;;;;;7.65;7.43;;;;;;;18.40;53.49;101966.66;694294;28;22401;-60
2022/07/09 01:13:35;;;;;;;13.18;12.77;;;;;;;18.48;53.74;101984.78;694496;28;21531;-62
2022/07/09 01:13:57;;;;;;;9.68;9.38;;;;;;;18.48;53.67;101982.03;693552;28;46605;-62
2022/07/09 01:14:18;;;;;;;8.77;8.48;;;;;;;18.45;53.78;101982.44;694043;28;22402;-62
2022/07/09 01:14:39;;;;;;;15.55;15.00;;;;;;;18.45;53.87;101983.28;693249;28;44409;-60
2022/07/09 01:15:00;;;;;;;10.38;10.07;;;;;;;18.47;53.71;101983.94;695868;28;21522;-62
2022/07/09 01:15:23;;;;;;;8.13;7.82;;;;;;;18.44;53.70;101972.56;693929;28;23399;-62
2022/07/09 01:15:44;;;;;;;10.25;9.95;;;;;;;18.49;53.81;101978.25;693520;28;46357;-62
2022/07/09 01:16:11;;;;;;;9.80;9.50;;;;;;;18.48;53.74;101976.56;693359;28;45246;-62
2022/07/09 01:16:33;;;;;;;10.65;10.27;;;;;;;18.48;53.73;101984.78;689383;28;138586;-62
2022/07/09 01:17:00;;;;;;;9.75;9.45;;;;;;;18.44;53.68;101975.28;692927;28;45235;-62
2022/07/09 01:17:26;;;;;;;9.48;9.18;;;;;;;18.47;53.70;101974.91;689858;28;138231;-62
2022/07/09 01:17:51;;;;;;;8.98;8.68;;;;;;;18.48;53.79;101971.97;690131;28;138197;-62
2022/07/09 01:18:13;;;;;;;17.83;17.13;;;;;;;18.47;53.65;101972.16;691457;28;92340;-62
2022/07/09 01:18:35;;;;;;;15.35;14.80;;;;;;;18.48;53.62;101979.31;693619;28;46332;-62
2022/07/09 01:18:56;;;;;;;10.45;10.13;;;;;;;18.47;53.56;101975.72;693322;28;46210;-61
2022/07/09 01:19:18;;;;;;;17.77;17.10;;;;;;;18.49;53.64;101983.72;694133;28;22410;-62
2022/07/09 01:19:50;;;;;;;12.75;12.35;;;;;;;18.48;53.70;101974.69;691614;28;98411;-62
2022/07/09 01:20:11;;;;;;;18.42;17.73;;;;;;;18.48;53.72;101974.69;695426;28;5865;-62
2022/07/09 01:20:34;;;;;;;26.65;25.58;;;;;;;18.50;53.59;101977.22;694124;28;23450;-62
2022/07/09 01:20:55;;;;;;;17.25;16.65;;;;;;;18.47;53.55;101969.41;692720;28;67283;-62
2022/07/09 01:21:17;;;;;;;23.23;22.30;;;;;;;18.51;53.72;101971.56;693785;28;21484;-62
2022/07/09 01:21:38;;;;;;;30.90;29.60;;;;;;;18.47;53.52;101970.25;691793;28;67420;-62
2022/07/09 01:22:00;;;;;;;25.33;24.25;;;;;;;18.49;53.62;101970.91;694557;28;22281;-61
2022/07/09 01:22:26;;;;;;;30.83;29.52;;;;;;;18.51;53.60;101982.50;693384;28;45334;-62
2022/07/09 01:22:48;;;;;;;33.85;32.40;;;;;;;18.51;53.53;101981.63;689955;28;138248;-61
2022/07/09 01:23:10;;;;;;;23.35;22.45;;;;;;;18.48;53.53;101977.44;693152;28;46249;-61
2022/07/09 01:23:31;;;;;;;22.98;22.08;;;;;;;18.50;53.59;101979.97;693678;28;46361;-61
2022/07/09 01:23:52;;;;;;;19.30;18.50;;;;;;;18.50;53.59;101982.69;694528;28;22196;-61
2022/07/09 01:24:14;;;;;;;19.95;19.15;;;;;;;18.47;53.70;101981.19;694131;28;22193;-60
2022/07/09 01:24:35;;;;;;;23.58;22.63;;;;;;;18.46;53.65;101978.66;693099;28;46361;-62
2022/07/09 01:24:57;;;;;;;33.70;32.25;;;;;;;18.45;53.74;101974.22;694419;28;22240;-59
2022/07/09 01:25:19;;;;;;;24.67;23.67;;;;;;;18.44;53.76;101980.75;693410;28;46310;-61
2022/07/09 01:25:43;;;;;;;26.70;25.63;;;;;;;18.43;53.57;101976.31;695119;28;1545;-61
2022/07/09 01:26:05;;;;;;;37.67;36.03;;;;;;;18.44;53.70;101975.28;691283;28;92416;-62
2022/07/09 01:26:26;;;;;;;30.30;29.02;;;;;;;18.43;53.61;101969.00;691821;28;22362;-61
2022/07/09 01:26:48;;;;;;;38.45;36.72;;;;;;;18.42;53.77;101975.50;690646;28;46266;-60
2022/07/09 01:27:10;;;;;;;44.55;42.50;;;;;;;18.41;53.52;101975.69;690644;28;23478;-62
2022/07/09 01:27:31;;;;;;;57.10;54.15;;;;;;;18.41;53.76;101979.25;690234;28;45111;-61
2022/07/09 01:27:52;;;;;;;271.17;256.30;;;;;;;18.42;53.81;101969.19;690824;28;44270;-62
2022/07/09 01:28:13;;;;;;;168.77;160.00;;;;;;;18.39;53.64;101970.41;691216;28;22394;-61
2022/07/09 01:28:36;;;;;;;29.17;27.95;;;;;;;18.37;54.09;101965.16;692096;28;21525;-62
2022/07/09 01:28:57;;;;;;;18.27;17.55;;;;;;;18.41;53.83;101964.75;691006;28;46519;-61
2022/07/09 01:29:19;;;;;;;11.50;11.10;;;;;;;18.40;53.93;101968.50;690797;28;46289;-61
2022/07/09 01:29:40;;;;;;;6.72;6.53;;;;;;;18.43;53.92;101970.84;692484;28;23587;-60
2022/07/09 01:30:03;;;;;;;12.05;11.65;;;;;;;18.44;53.82;101975.28;690621;28;44413;-61
2022/07/09 01:30:26;;;;;;;11.45;11.05;;;;;;;18.42;53.66;101971.91;690533;28;47279;-58
2022/07/09 01:30:47;;;;;;;6.38;6.18;;;;;;;18.43;53.81;101968.13;690163;28;69434;-61
2022/07/09 01:31:08;;;;;;;9.00;8.70;;;;;;;18.40;53.83;101963.03;691043;28;22481;-61
2022/07/09 01:31:29;;;;;;;10.57;10.23;;;;;;;18.42;53.85;101977.38;690812;28;23339;-60
2022/07/09 01:31:56;;;;;;;16.45;15.85;;;;;;;18.43;54.04;101974.47;692100;28;8750;-59
2022/07/09 01:32:17;;;;;;;22.48;21.60;;;;;;;18.46;53.95;101970.47;687528;28;138790;-61
2022/07/09 01:32:38;;;;;;;34.17;32.78;;;;;;;18.47;53.72;101974.91;691495;28;23529;-62
2022/07/09 01:33:00;;;;;;;41.75;39.92;;;;;;;18.44;53.80;101975.28;691579;28;22576;-62
2022/07/09 01:33:21;;;;;;;59.30;56.58;;;;;;;18.42;53.75;101970.03;691304;28;31321;-62
2022/07/09 01:33:44;;;;;;;71.72;68.35;;;;;;;18.42;53.85;101974.66;691238;28;22403;-62
2022/07/09 01:34:05;;;;;;;92.88;88.47;;;;;;;18.41;53.90;101970.22;689752;28;70294;-62
2022/07/09 01:34:26;;;;;;;97.90;93.22;;;;;;;18.39;53.91;101964.94;692776;28;887;-62
2022/07/09 01:34:47;;;;;;;125.90;119.75;;;;;;;18.40;53.75;101968.50;691803;28;17903;-61
2022/07/09 01:35:09;;;;;;;273.15;259.08;;;;;;;18.40;53.92;101966.66;691432;28;17052;-60
2022/07/09 01:35:30;;;;;;;347.15;329.60;;;;;;;18.40;53.84;101963.03;691419;28;12331;-62
2022/07/09 01:35:53;;;;;;;416.33;393.63;;;;;;;18.39;53.76;101959.47;691720;28;23493;-62
2022/07/09 01:36:14;;;;;;;213.43;201.63;;;;;;;18.40;53.89;101969.38;689812;28;69396;-60
2022/07/09 01:36:36;;;;;;;71.82;68.40;;;;;;;18.39;53.88;101964.13;693161;28;23628;-61
2022/07/09 01:36:58;;;;;;;45.35;43.25;;;;;;;18.40;53.96;101968.50;692710;28;44375;-62
2022/07/09 01:37:19;;;;;;;15.57;14.98;;;;;;;18.36;53.83;101965.34;693852;28;23407;-59
2022/07/09 01:37:40;;;;;;;20.98;20.17;;;;;;;18.34;54.03;101964.72;693969;28;46481;-61
2022/07/09 01:38:02;;;;;;;15.00;14.43;;;;;;;18.34;54.14;101959.25;694262;28;23495;-62
2022/07/09 01:38:23;;;;;;;6.80;6.60;;;;;;;18.36;53.94;101963.44;694149;28;23733;-61
2022/07/09 01:38:44;;;;;;;9.27;8.98;;;;;;;18.35;53.80;101960.91;694121;28;23395;-62
2022/07/09 01:39:06;;;;;;;5.60;5.40;;;;;;;18.35;54.13;101961.78;694156;28;23720;-61
2022/07/09 01:39:28;;;;;;;8.48;8.23;;;;;;;18.34;54.09;101964.72;694201;28;23445;-62
2022/07/09 01:39:58;;;;;;;5.85;5.65;;;;;;;18.32;54.03;101961.31;693401;28;47203;-62
2022/07/09 01:40:19;;;;;;;4.10;4.00;;;;;;;18.27;54.38;101955.59;688697;28;137712;-61
2022/07/09 01:40:42;;;;;;;4.43;4.32;;;;;;;18.27;54.22;101958.31;694619;28;22432;-61
2022/07/09 01:41:03;;;;;;;5.78;5.60;;;;;;;18.27;54.30;101958.31;693292;28;44380;-61
2022/07/09 01:41:24;;;;;;;5.72;5.53;;;;;;;18.28;54.42;101960.03;692289;28;45175;-61
2022/07/09 01:41:45;;;;;;;5.05;4.88;;;;;;;18.29;54.26;101958.97;694315;28;23463;-61
2022/07/09 01:42:08;;;;;;;3.60;3.50;;;;;;;18.29;54.28;101956.22;693685;28;21468;-61